SLTJSLVR

Guest
Details From SLTJ - CAPITAN ORIEL LEA PLAZA
To SLVR - VIRU VIRU INTL
Flight Number -
Tags decoded
Created
Modified
Stats Distance 253 nm / 468 km
Max Altitude 0 ft / 0 m
Waypoints 3
Social Downloads 1
Likes 0
Share VATSIM

Download

Looking for another format? Having issues loading an existing format? Contact us
Advertisement - Login to hide

Notes

Requested: SLTJ UGODI1 PULSA UW316 VIR SLVR Unmatched points: UGODI1 PULSA UW316

Route

SLTJ VIR SLVR

ID Type Via Altitude Latitude Longitude Leg Dist Tot Dist Heading (true) Name
O SLTJ APT - 0 ft / 0 m -21.55574˚ -64.70133˚ - 0 nm - CAPITAN ORIEL LEA PLAZA
VIR VOR - 0 ft / 0 m -17.62848˚ -63.14990˚ 251 nm 251 nm 21° / 20° VIRU VIRU VOR-DME
O SLVR APT - 0 ft / 0 m -17.64476˚ -63.13536˚ 1 nm 252 nm 140° / 140° VIRU VIRU INTL

Altitude Profile

Advertisement - Login to hide

Weather


0- 5 10 15 20 25 30 35+ Temperature / ° C

Clouds and Precipitation
Forecast for 2017-12-12 18:00 UTC. Updated an hour ago

Ground ~20,000 ft ~40,000 ft Winds

SLTJ

Details ICAO SLTJ (TJA)
Name CAPITAN ORIEL LEA PLAZA
Region Bolivia
Timezone America/La_Paz (UTC-4.0)
Stats Elevation 6,084 ft / 1,854 m (AMSL)
Location -21.555737° -64.701326°
Runways 1
Magnetic Variation 9.397° W

METAR

SLTJ 121600Z 00000KT 9999 FEW036 27/10 Q1017

Decode

TAF

Not found

Departure Runways

ID Width Length Bearing (true) Bearing (mag) Surface Threshold Offset Overrun Length
13 148 ft / 45 m 9,970 ft / 3,039 m 124.42° 133.82° Asphalt 0 ft / 0 m 0 ft / 0 m
31 148 ft / 45 m 9,970 ft / 3,039 m 304.41° 313.81° Asphalt 0 ft / 0 m 0 ft / 0 m

SLVR

Details ICAO SLVR (VVI)
Name VIRU VIRU INTL
Region Bolivia
Timezone America/La_Paz (UTC-4.0)
Stats Elevation 1,225 ft / 373 m (AMSL)
Location -17.644755° -63.135362°
Runways 1
Magnetic Variation 11.891° W

METAR

SLVR 121600Z 35004KT 9999 FEW023 FEW025TCU 33/19 Q1010

Decode

TAF

Not found

Destination Runways

ID Width Length Bearing (true) Bearing (mag) Surface Threshold Offset Overrun Length
16 148 ft / 45 m 11,519 ft / 3,511 m 147.35° 159.24° Concrete 0 ft / 0 m 197 ft / 60 m
34 148 ft / 45 m 11,519 ft / 3,511 m 327.34° 339.23° Concrete 0 ft / 0 m 197 ft / 60 m

Approach Navaids

Runway Type Ident Frequency Range Bearing (true) Bearing (mag) Slope Elevation
34 Localiser VCZ 110.90 MHz 18 nm / 33 km 327.34° 339.23° - 1,224 ft / 373 m (AMSL)
34 Glidescope VCZ 110.90 MHz 10 nm / 19 km 327.34° 339.23° 3.00° 1,224 ft / 373 m (AMSL)

Popular Alternatives